sensor_id;sensor_type;location;lat;lon;timestamp;P1;durP1;ratioP1;P2;durP2;ratioP2
15482;SDS011;7843;50.330;7.312;2023-05-20T00:01:04;2.60;;;0.80;;
15482;SDS011;7843;50.330;7.312;2023-05-20T00:03:30;1.50;;;1.10;;
15482;SDS011;7843;50.330;7.312;2023-05-20T00:05:57;2.42;;;0.60;;
15482;SDS011;7843;50.330;7.312;2023-05-20T00:08:24;2.30;;;0.82;;
15482;SDS011;7843;50.330;7.312;2023-05-20T00:10:51;1.60;;;1.08;;
15482;SDS011;7843;50.330;7.312;2023-05-20T00:13:17;1.30;;;0.80;;
15482;SDS011;7843;50.330;7.312;2023-05-20T00:15:44;2.75;;;0.85;;
15482;SDS011;7843;50.330;7.312;2023-05-20T00:18:11;2.20;;;1.02;;
15482;SDS011;7843;50.330;7.312;2023-05-20T00:20:38;0.88;;;0.60;;
15482;SDS011;7843;50.330;7.312;2023-05-20T00:23:04;2.05;;;1.00;;
15482;SDS011;7843;50.330;7.312;2023-05-20T00:25:31;1.63;;;1.00;;
15482;SDS011;7843;50.330;7.312;2023-05-20T00:27:58;1.90;;;0.93;;
15482;SDS011;7843;50.330;7.312;2023-05-20T00:30:25;4.78;;;1.33;;
15482;SDS011;7843;50.330;7.312;2023-05-20T00:32:51;1.47;;;0.73;;
15482;SDS011;7843;50.330;7.312;2023-05-20T00:35:18;3.67;;;1.10;;
15482;SDS011;7843;50.330;7.312;2023-05-20T00:37:45;1.38;;;1.20;;
15482;SDS011;7843;50.330;7.312;2023-05-20T00:40:12;3.17;;;1.08;;
15482;SDS011;7843;50.330;7.312;2023-05-20T00:42:40;2.50;;;1.05;;
15482;SDS011;7843;50.330;7.312;2023-05-20T00:45:07;0.70;;;0.70;;
15482;SDS011;7843;50.330;7.312;2023-05-20T00:47:34;0.98;;;0.85;;
15482;SDS011;7843;50.330;7.312;2023-05-20T00:50:04;2.40;;;1.20;;
15482;SDS011;7843;50.330;7.312;2023-05-20T00:52:31;5.45;;;1.25;;
15482;SDS011;7843;50.330;7.312;2023-05-20T00:54:59;2.72;;;0.77;;
15482;SDS011;7843;50.330;7.312;2023-05-20T00:57:26;2.03;;;1.10;;
15482;SDS011;7843;50.330;7.312;2023-05-20T00:59:53;1.65;;;0.90;;
15482;SDS011;7843;50.330;7.312;2023-05-20T01:02:21;1.20;;;0.90;;
15482;SDS011;7843;50.330;7.312;2023-05-20T01:04:49;1.40;;;0.80;;
15482;SDS011;7843;50.330;7.312;2023-05-20T01:07:16;2.03;;;1.30;;
15482;SDS011;7843;50.330;7.312;2023-05-20T01:09:43;1.30;;;0.85;;
15482;SDS011;7843;50.330;7.312;2023-05-20T01:14:49;2.25;;;0.88;;
15482;SDS011;7843;50.330;7.312;2023-05-20T01:17:25;1.92;;;1.00;;
15482;SDS011;7843;50.330;7.312;2023-05-20T01:19:56;0.90;;;0.75;;
15482;SDS011;7843;50.330;7.312;2023-05-20T01:22:28;0.80;;;0.70;;
15482;SDS011;7843;50.330;7.312;2023-05-20T01:24:55;1.23;;;0.80;;
15482;SDS011;7843;50.330;7.312;2023-05-20T01:27:22;1.57;;;0.80;;
15482;SDS011;7843;50.330;7.312;2023-05-20T01:29:50;2.92;;;0.80;;
15482;SDS011;7843;50.330;7.312;2023-05-20T01:34:47;5.00;;;0.88;;
15482;SDS011;7843;50.330;7.312;2023-05-20T01:37:15;0.60;;;0.60;;
15482;SDS011;7843;50.330;7.312;2023-05-20T01:39:44;0.85;;;0.73;;
15482;SDS011;7843;50.330;7.312;2023-05-20T01:42:12;2.60;;;0.70;;
15482;SDS011;7843;50.330;7.312;2023-05-20T01:44:40;1.42;;;1.05;;
15482;SDS011;7843;50.330;7.312;2023-05-20T01:47:07;1.23;;;0.90;;
15482;SDS011;7843;50.330;7.312;2023-05-20T01:49:34;1.35;;;1.00;;
15482;SDS011;7843;50.330;7.312;2023-05-20T01:52:01;1.90;;;1.00;;
15482;SDS011;7843;50.330;7.312;2023-05-20T01:54:28;2.72;;;0.80;;
15482;SDS011;7843;50.330;7.312;2023-05-20T01:56:55;2.72;;;0.93;;
15482;SDS011;7843;50.330;7.312;2023-05-20T01:59:22;1.67;;;0.85;;
15482;SDS011;7843;50.330;7.312;2023-05-20T02:01:48;1.60;;;0.93;;
15482;SDS011;7843;50.330;7.312;2023-05-20T02:04:15;0.95;;;0.70;;
15482;SDS011;7843;50.330;7.312;2023-05-20T02:06:44;1.20;;;0.87;;
15482;SDS011;7843;50.330;7.312;2023-05-20T02:09:11;3.35;;;0.77;;
15482;SDS011;7843;50.330;7.312;2023-05-20T02:11:38;1.17;;;0.90;;
15482;SDS011;7843;50.330;7.312;2023-05-20T02:14:05;1.90;;;0.80;;
15482;SDS011;7843;50.330;7.312;2023-05-20T02:16:32;2.10;;;0.80;;
15482;SDS011;7843;50.330;7.312;2023-05-20T02:18:58;1.48;;;0.80;;
15482;SDS011;7843;50.330;7.312;2023-05-20T02:21:27;0.90;;;0.80;;
15482;SDS011;7843;50.330;7.312;2023-05-20T02:23:54;1.10;;;0.70;;
15482;SDS011;7843;50.330;7.312;2023-05-20T02:26:20;1.00;;;0.90;;
15482;SDS011;7843;50.330;7.312;2023-05-20T02:28:47;1.15;;;0.85;;
15482;SDS011;7843;50.330;7.312;2023-05-20T02:31:16;1.75;;;1.13;;
15482;SDS011;7843;50.330;7.312;2023-05-20T02:33:43;1.02;;;0.93;;
15482;SDS011;7843;50.330;7.312;2023-05-20T02:36:10;1.42;;;1.17;;
15482;SDS011;7843;50.330;7.312;2023-05-20T02:38:37;2.08;;;0.80;;
15482;SDS011;7843;50.330;7.312;2023-05-20T02:41:03;0.73;;;0.70;;
15482;SDS011;7843;50.330;7.312;2023-05-20T02:43:33;1.55;;;0.90;;
15482;SDS011;7843;50.330;7.312;2023-05-20T02:46:01;1.38;;;1.10;;
15482;SDS011;7843;50.330;7.312;2023-05-20T02:48:28;1.30;;;0.90;;
15482;SDS011;7843;50.330;7.312;2023-05-20T02:50:55;1.20;;;0.90;;
15482;SDS011;7843;50.330;7.312;2023-05-20T02:53:24;1.13;;;0.70;;
15482;SDS011;7843;50.330;7.312;2023-05-20T02:55:51;2.37;;;1.10;;
15482;SDS011;7843;50.330;7.312;2023-05-20T02:58:18;4.25;;;1.20;;
15482;SDS011;7843;50.330;7.312;2023-05-20T03:00:51;1.43;;;0.93;;
15482;SDS011;7843;50.330;7.312;2023-05-20T03:03:18;1.30;;;0.93;;
15482;SDS011;7843;50.330;7.312;2023-05-20T03:05:45;2.03;;;1.00;;
15482;SDS011;7843;50.330;7.312;2023-05-20T03:08:13;1.65;;;0.82;;
15482;SDS011;7843;50.330;7.312;2023-05-20T03:10:40;2.27;;;1.03;;
15482;SDS011;7843;50.330;7.312;2023-05-20T03:13:07;2.47;;;1.15;;
15482;SDS011;7843;50.330;7.312;2023-05-20T03:15:36;2.08;;;1.13;;
15482;SDS011;7843;50.330;7.312;2023-05-20T03:18:04;1.60;;;1.00;;
15482;SDS011;7843;50.330;7.312;2023-05-20T03:20:32;1.88;;;1.23;;
15482;SDS011;7843;50.330;7.312;2023-05-20T03:22:59;3.42;;;0.95;;
15482;SDS011;7843;50.330;7.312;2023-05-20T03:25:26;1.50;;;1.00;;
15482;SDS011;7843;50.330;7.312;2023-05-20T03:27:53;1.38;;;1.00;;
15482;SDS011;7843;50.330;7.312;2023-05-20T03:30:20;1.80;;;0.98;;
15482;SDS011;7843;50.330;7.312;2023-05-20T03:32:46;4.78;;;1.10;;
15482;SDS011;7843;50.330;7.312;2023-05-20T03:35:13;1.85;;;0.82;;
15482;SDS011;7843;50.330;7.312;2023-05-20T03:37:40;1.67;;;0.95;;
15482;SDS011;7843;50.330;7.312;2023-05-20T03:40:07;0.65;;;0.63;;
15482;SDS011;7843;50.330;7.312;2023-05-20T03:42:38;0.95;;;0.73;;
15482;SDS011;7843;50.330;7.312;2023-05-20T03:45:05;1.48;;;1.02;;
15482;SDS011;7843;50.330;7.312;2023-05-20T03:47:32;1.58;;;1.05;;
15482;SDS011;7843;50.330;7.312;2023-05-20T03:49:59;1.17;;;0.80;;
15482;SDS011;7843;50.330;7.312;2023-05-20T03:52:26;1.25;;;1.10;;
15482;SDS011;7843;50.330;7.312;2023-05-20T03:54:53;1.90;;;0.90;;
15482;SDS011;7843;50.330;7.312;2023-05-20T03:57:19;3.80;;;1.10;;
15482;SDS011;7843;50.330;7.312;2023-05-20T03:59:49;2.10;;;1.10;;
15482;SDS011;7843;50.330;7.312;2023-05-20T04:02:16;2.20;;;1.05;;
15482;SDS011;7843;50.330;7.312;2023-05-20T04:04:43;1.80;;;1.10;;
15482;SDS011;7843;50.330;7.312;2023-05-20T04:07:10;1.15;;;0.80;;
15482;SDS011;7843;50.330;7.312;2023-05-20T04:09:37;4.90;;;0.95;;
15482;SDS011;7843;50.330;7.312;2023-05-20T04:12:04;2.60;;;1.50;;
15482;SDS011;7843;50.330;7.312;2023-05-20T04:14:32;3.35;;;1.00;;
15482;SDS011;7843;50.330;7.312;2023-05-20T04:17:02;2.70;;;1.30;;
15482;SDS011;7843;50.330;7.312;2023-05-20T04:19:29;1.60;;;1.20;;
15482;SDS011;7843;50.330;7.312;2023-05-20T04:21:56;2.35;;;0.93;;
15482;SDS011;7843;50.330;7.312;2023-05-20T04:24:24;1.70;;;1.23;;
15482;SDS011;7843;50.330;7.312;2023-05-20T04:26:52;1.20;;;0.77;;
15482;SDS011;7843;50.330;7.312;2023-05-20T04:29:19;1.30;;;0.80;;
15482;SDS011;7843;50.330;7.312;2023-05-20T04:31:46;1.13;;;0.70;;
15482;SDS011;7843;50.330;7.312;2023-05-20T04:34:13;2.40;;;1.20;;
15482;SDS011;7843;50.330;7.312;2023-05-20T04:36:45;1.10;;;1.00;;
15482;SDS011;7843;50.330;7.312;2023-05-20T04:39:12;1.13;;;0.90;;
15482;SDS011;7843;50.330;7.312;2023-05-20T04:41:40;1.05;;;0.95;;
15482;SDS011;7843;50.330;7.312;2023-05-20T04:44:07;1.70;;;1.20;;
15482;SDS011;7843;50.330;7.312;2023-05-20T04:46:34;2.80;;;1.10;;
15482;SDS011;7843;50.330;7.312;2023-05-20T04:49:01;1.70;;;1.10;;
15482;SDS011;7843;50.330;7.312;2023-05-20T04:51:29;1.05;;;0.80;;
15482;SDS011;7843;50.330;7.312;2023-05-20T04:53:56;1.05;;;0.88;;
15482;SDS011;7843;50.330;7.312;2023-05-20T04:56:24;1.38;;;0.77;;
15482;SDS011;7843;50.330;7.312;2023-05-20T04:58:51;3.50;;;1.00;;
15482;SDS011;7843;50.330;7.312;2023-05-20T05:01:18;0.98;;;0.80;;
15482;SDS011;7843;50.330;7.312;2023-05-20T05:03:44;1.43;;;0.90;;
15482;SDS011;7843;50.330;7.312;2023-05-20T05:06:11;1.95;;;1.00;;
15482;SDS011;7843;50.330;7.312;2023-05-20T05:08:38;2.10;;;1.10;;
15482;SDS011;7843;50.330;7.312;2023-05-20T05:11:04;1.40;;;1.00;;
15482;SDS011;7843;50.330;7.312;2023-05-20T05:13:32;1.00;;;0.88;;
15482;SDS011;7843;50.330;7.312;2023-05-20T05:15:59;1.48;;;0.80;;
15482;SDS011;7843;50.330;7.312;2023-05-20T05:18:26;1.65;;;1.00;;
15482;SDS011;7843;50.330;7.312;2023-05-20T05:21:03;2.08;;;1.17;;
15482;SDS011;7843;50.330;7.312;2023-05-20T05:23:31;1.30;;;1.00;;
15482;SDS011;7843;50.330;7.312;2023-05-20T05:25:58;5.25;;;1.10;;
15482;SDS011;7843;50.330;7.312;2023-05-20T05:28:25;1.45;;;1.02;;
15482;SDS011;7843;50.330;7.312;2023-05-20T05:30:55;2.30;;;1.20;;
15482;SDS011;7843;50.330;7.312;2023-05-20T05:33:22;1.75;;;1.10;;
15482;SDS011;7843;50.330;7.312;2023-05-20T05:35:49;1.30;;;1.05;;
15482;SDS011;7843;50.330;7.312;2023-05-20T05:38:16;2.17;;;1.10;;
15482;SDS011;7843;50.330;7.312;2023-05-20T05:40:43;1.45;;;1.15;;
15482;SDS011;7843;50.330;7.312;2023-05-20T05:43:10;1.05;;;0.90;;
15482;SDS011;7843;50.330;7.312;2023-05-20T05:45:37;1.00;;;0.90;;
15482;SDS011;7843;50.330;7.312;2023-05-20T05:48:04;1.50;;;0.98;;
15482;SDS011;7843;50.330;7.312;2023-05-20T05:50:31;1.02;;;0.90;;
15482;SDS011;7843;50.330;7.312;2023-05-20T05:52:57;2.63;;;0.95;;
15482;SDS011;7843;50.330;7.312;2023-05-20T05:55:24;1.20;;;0.95;;
15482;SDS011;7843;50.330;7.312;2023-05-20T05:57:51;1.45;;;1.02;;
15482;SDS011;7843;50.330;7.312;2023-05-20T06:00:18;1.70;;;1.08;;
15482;SDS011;7843;50.330;7.312;2023-05-20T06:02:46;1.30;;;1.20;;
15482;SDS011;7843;50.330;7.312;2023-05-20T06:05:13;2.33;;;1.17;;
15482;SDS011;7843;50.330;7.312;2023-05-20T06:07:40;2.25;;;1.02;;
15482;SDS011;7843;50.330;7.312;2023-05-20T06:10:06;2.75;;;0.90;;
15482;SDS011;7843;50.330;7.312;2023-05-20T06:12:34;1.50;;;1.00;;
15482;SDS011;7843;50.330;7.312;2023-05-20T06:15:01;1.43;;;1.10;;
15482;SDS011;7843;50.330;7.312;2023-05-20T06:17:27;1.35;;;1.20;;
15482;SDS011;7843;50.330;7.312;2023-05-20T06:19:54;1.70;;;1.20;;
15482;SDS011;7843;50.330;7.312;2023-05-20T06:22:21;2.05;;;1.33;;
15482;SDS011;7843;50.330;7.312;2023-05-20T06:24:48;3.33;;;1.35;;
15482;SDS011;7843;50.330;7.312;2023-05-20T06:27:14;3.42;;;1.20;;
15482;SDS011;7843;50.330;7.312;2023-05-20T06:29:41;1.60;;;1.05;;
15482;SDS011;7843;50.330;7.312;2023-05-20T06:32:08;1.42;;;1.00;;
15482;SDS011;7843;50.330;7.312;2023-05-20T06:34:35;1.63;;;1.00;;
15482;SDS011;7843;50.330;7.312;2023-05-20T06:37:02;3.42;;;1.10;;
15482;SDS011;7843;50.330;7.312;2023-05-20T06:39:29;2.03;;;1.20;;
15482;SDS011;7843;50.330;7.312;2023-05-20T06:41:56;2.20;;;1.30;;
15482;SDS011;7843;50.330;7.312;2023-05-20T06:44:23;1.40;;;1.20;;
15482;SDS011;7843;50.330;7.312;2023-05-20T06:46:49;2.58;;;1.17;;
15482;SDS011;7843;50.330;7.312;2023-05-20T06:49:16;2.05;;;1.35;;
15482;SDS011;7843;50.330;7.312;2023-05-20T06:51:43;1.45;;;1.00;;
15482;SDS011;7843;50.330;7.312;2023-05-20T06:54:10;2.55;;;1.23;;
15482;SDS011;7843;50.330;7.312;2023-05-20T06:56:36;1.38;;;1.15;;
15482;SDS011;7843;50.330;7.312;2023-05-20T06:59:03;1.70;;;1.30;;
15482;SDS011;7843;50.330;7.312;2023-05-20T07:01:30;2.60;;;1.30;;
15482;SDS011;7843;50.330;7.312;2023-05-20T07:03:57;2.25;;;1.25;;
15482;SDS011;7843;50.330;7.312;2023-05-20T07:06:23;2.50;;;1.50;;
15482;SDS011;7843;50.330;7.312;2023-05-20T07:08:50;1.92;;;1.40;;
15482;SDS011;7843;50.330;7.312;2023-05-20T07:11:17;1.08;;;0.90;;
15482;SDS011;7843;50.330;7.312;2023-05-20T07:13:44;2.17;;;1.25;;
15482;SDS011;7843;50.330;7.312;2023-05-20T07:16:10;2.08;;;1.23;;
15482;SDS011;7843;50.330;7.312;2023-05-20T07:18:37;1.63;;;1.23;;
15482;SDS011;7843;50.330;7.312;2023-05-20T07:21:04;2.80;;;1.60;;
15482;SDS011;7843;50.330;7.312;2023-05-20T07:23:31;1.90;;;1.38;;
15482;SDS011;7843;50.330;7.312;2023-05-20T07:25:57;2.47;;;1.35;;
15482;SDS011;7843;50.330;7.312;2023-05-20T07:28:24;1.85;;;1.17;;
15482;SDS011;7843;50.330;7.312;2023-05-20T07:30:51;4.00;;;1.50;;
15482;SDS011;7843;50.330;7.312;2023-05-20T07:33:19;1.17;;;1.07;;
15482;SDS011;7843;50.330;7.312;2023-05-20T07:35:46;2.25;;;1.30;;
15482;SDS011;7843;50.330;7.312;2023-05-20T07:38:12;2.83;;;1.20;;
15482;SDS011;7843;50.330;7.312;2023-05-20T07:40:39;2.05;;;1.33;;
15482;SDS011;7843;50.330;7.312;2023-05-20T07:43:07;3.13;;;1.20;;
15482;SDS011;7843;50.330;7.312;2023-05-20T07:45:34;2.80;;;1.20;;
15482;SDS011;7843;50.330;7.312;2023-05-20T07:48:04;1.52;;;1.30;;
15482;SDS011;7843;50.330;7.312;2023-05-20T07:50:35;1.80;;;1.25;;
15482;SDS011;7843;50.330;7.312;2023-05-20T07:53:01;1.70;;;1.13;;
15482;SDS011;7843;50.330;7.312;2023-05-20T07:55:28;1.58;;;1.10;;
15482;SDS011;7843;50.330;7.312;2023-05-20T07:57:56;1.90;;;1.10;;
15482;SDS011;7843;50.330;7.312;2023-05-20T08:00:23;4.75;;;1.77;;
15482;SDS011;7843;50.330;7.312;2023-05-20T08:02:50;2.63;;;1.77;;
15482;SDS011;7843;50.330;7.312;2023-05-20T08:05:17;3.17;;;1.53;;
15482;SDS011;7843;50.330;7.312;2023-05-20T08:07:43;2.22;;;1.20;;
15482;SDS011;7843;50.330;7.312;2023-05-20T08:10:10;3.55;;;1.80;;
15482;SDS011;7843;50.330;7.312;2023-05-20T08:12:37;2.33;;;1.58;;
15482;SDS011;7843;50.330;7.312;2023-05-20T08:15:04;2.33;;;1.50;;
15482;SDS011;7843;50.330;7.312;2023-05-20T08:17:31;2.75;;;2.00;;
15482;SDS011;7843;50.330;7.312;2023-05-20T08:19:58;4.10;;;1.50;;
15482;SDS011;7843;50.330;7.312;2023-05-20T08:22:26;3.47;;;1.80;;
15482;SDS011;7843;50.330;7.312;2023-05-20T08:24:53;3.50;;;1.83;;
15482;SDS011;7843;50.330;7.312;2023-05-20T08:27:19;2.28;;;1.52;;
15482;SDS011;7843;50.330;7.312;2023-05-20T08:29:46;3.65;;;1.95;;
15482;SDS011;7843;50.330;7.312;2023-05-20T08:32:13;2.53;;;1.67;;
15482;SDS011;7843;50.330;7.312;2023-05-20T08:34:39;2.83;;;1.65;;
15482;SDS011;7843;50.330;7.312;2023-05-20T08:37:07;5.57;;;1.58;;
15482;SDS011;7843;50.330;7.312;2023-05-20T08:39:34;1.88;;;1.33;;
15482;SDS011;7843;50.330;7.312;2023-05-20T08:42:01;3.15;;;1.85;;
15482;SDS011;7843;50.330;7.312;2023-05-20T08:44:28;2.00;;;1.48;;
15482;SDS011;7843;50.330;7.312;2023-05-20T08:46:55;2.38;;;2.00;;
15482;SDS011;7843;50.330;7.312;2023-05-20T08:49:22;2.67;;;1.80;;
15482;SDS011;7843;50.330;7.312;2023-05-20T08:51:49;2.05;;;1.50;;
15482;SDS011;7843;50.330;7.312;2023-05-20T08:54:16;2.17;;;1.50;;
15482;SDS011;7843;50.330;7.312;2023-05-20T08:56:44;6.20;;;2.58;;
15482;SDS011;7843;50.330;7.312;2023-05-20T08:59:11;7.15;;;4.30;;
15482;SDS011;7843;50.330;7.312;2023-05-20T09:01:40;3.42;;;2.15;;
15482;SDS011;7843;50.330;7.312;2023-05-20T09:04:10;4.27;;;2.90;;
15482;SDS011;7843;50.330;7.312;2023-05-20T09:06:41;4.38;;;1.95;;
15482;SDS011;7843;50.330;7.312;2023-05-20T09:09:10;3.92;;;2.05;;
15482;SDS011;7843;50.330;7.312;2023-05-20T09:11:40;2.42;;;1.77;;
15482;SDS011;7843;50.330;7.312;2023-05-20T09:14:07;3.75;;;1.95;;
15482;SDS011;7843;50.330;7.312;2023-05-20T09:16:34;3.63;;;2.63;;
15482;SDS011;7843;50.330;7.312;2023-05-20T09:19:01;3.58;;;2.28;;
15482;SDS011;7843;50.330;7.312;2023-05-20T09:21:31;4.43;;;2.47;;
15482;SDS011;7843;50.330;7.312;2023-05-20T09:24:03;2.22;;;1.90;;
15482;SDS011;7843;50.330;7.312;2023-05-20T09:26:30;3.13;;;2.37;;
15482;SDS011;7843;50.330;7.312;2023-05-20T09:28:57;3.72;;;2.28;;
15482;SDS011;7843;50.330;7.312;2023-05-20T09:31:25;3.50;;;2.30;;
15482;SDS011;7843;50.330;7.312;2023-05-20T09:34:01;3.33;;;2.03;;
15482;SDS011;7843;50.330;7.312;2023-05-20T09:36:28;3.80;;;2.10;;
15482;SDS011;7843;50.330;7.312;2023-05-20T09:38:57;2.58;;;1.88;;
15482;SDS011;7843;50.330;7.312;2023-05-20T09:41:32;2.55;;;1.83;;
15482;SDS011;7843;50.330;7.312;2023-05-20T09:44:04;3.97;;;2.27;;
15482;SDS011;7843;50.330;7.312;2023-05-20T09:46:34;2.77;;;1.90;;
15482;SDS011;7843;50.330;7.312;2023-05-20T09:49:02;3.53;;;1.77;;
15482;SDS011;7843;50.330;7.312;2023-05-20T09:51:29;3.40;;;2.20;;
15482;SDS011;7843;50.330;7.312;2023-05-20T09:53:57;2.95;;;2.05;;
15482;SDS011;7843;50.330;7.312;2023-05-20T09:56:25;4.03;;;2.03;;
15482;SDS011;7843;50.330;7.312;2023-05-20T09:58:53;5.32;;;2.55;;
15482;SDS011;7843;50.330;7.312;2023-05-20T10:01:23;2.43;;;1.80;;
15482;SDS011;7843;50.330;7.312;2023-05-20T10:03:51;6.50;;;2.40;;
15482;SDS011;7843;50.330;7.312;2023-05-20T10:15:01;4.30;;;2.55;;
15482;SDS011;7843;50.330;7.312;2023-05-20T10:17:43;4.22;;;2.13;;
15482;SDS011;7843;50.330;7.312;2023-05-20T10:20:18;2.83;;;2.00;;
15482;SDS011;7843;50.330;7.312;2023-05-20T10:22:53;4.15;;;2.20;;
15482;SDS011;7843;50.330;7.312;2023-05-20T10:25:23;14.85;;;7.43;;
15482;SDS011;7843;50.330;7.312;2023-05-20T10:28:02;4.50;;;2.28;;
15482;SDS011;7843;50.330;7.312;2023-05-20T10:30:30;2.33;;;1.90;;
15482;SDS011;7843;50.330;7.312;2023-05-20T10:32:57;4.72;;;2.20;;
15482;SDS011;7843;50.330;7.312;2023-05-20T10:35:30;2.40;;;1.92;;
15482;SDS011;7843;50.330;7.312;2023-05-20T10:38:07;2.80;;;2.00;;
15482;SDS011;7843;50.330;7.312;2023-05-20T10:40:36;2.53;;;1.80;;
15482;SDS011;7843;50.330;7.312;2023-05-20T10:43:10;2.75;;;1.98;;
15482;SDS011;7843;50.330;7.312;2023-05-20T10:45:54;3.70;;;1.90;;
15482;SDS011;7843;50.330;7.312;2023-05-20T10:48:26;3.00;;;2.00;;
15482;SDS011;7843;50.330;7.312;2023-05-20T10:50:55;2.70;;;2.00;;
15482;SDS011;7843;50.330;7.312;2023-05-20T10:53:23;3.67;;;2.08;;
15482;SDS011;7843;50.330;7.312;2023-05-20T10:55:58;2.88;;;1.83;;
15482;SDS011;7843;50.330;7.312;2023-05-20T10:58:25;2.80;;;2.07;;
15482;SDS011;7843;50.330;7.312;2023-05-20T11:00:52;4.68;;;1.80;;
15482;SDS011;7843;50.330;7.312;2023-05-20T11:03:21;2.95;;;2.10;;
15482;SDS011;7843;50.330;7.312;2023-05-20T11:05:48;5.47;;;2.33;;
15482;SDS011;7843;50.330;7.312;2023-05-20T11:08:16;2.80;;;2.25;;
15482;SDS011;7843;50.330;7.312;2023-05-20T11:10:52;5.10;;;2.00;;
15482;SDS011;7843;50.330;7.312;2023-05-20T11:13:22;2.58;;;2.00;;
15482;SDS011;7843;50.330;7.312;2023-05-20T11:15:48;2.55;;;2.05;;
15482;SDS011;7843;50.330;7.312;2023-05-20T11:18:16;2.90;;;1.90;;
15482;SDS011;7843;50.330;7.312;2023-05-20T11:20:44;4.20;;;2.38;;
15482;SDS011;7843;50.330;7.312;2023-05-20T11:23:13;2.43;;;2.07;;
15482;SDS011;7843;50.330;7.312;2023-05-20T11:25:40;4.40;;;2.67;;
15482;SDS011;7843;50.330;7.312;2023-05-20T11:28:08;3.38;;;2.05;;
15482;SDS011;7843;50.330;7.312;2023-05-20T11:30:40;3.15;;;2.08;;
15482;SDS011;7843;50.330;7.312;2023-05-20T11:33:10;2.60;;;2.17;;
15482;SDS011;7843;50.330;7.312;2023-05-20T11:35:43;3.60;;;2.50;;
15482;SDS011;7843;50.330;7.312;2023-05-20T11:38:10;3.30;;;2.53;;
15482;SDS011;7843;50.330;7.312;2023-05-20T11:40:42;3.23;;;2.47;;
15482;SDS011;7843;50.330;7.312;2023-05-20T11:43:16;2.80;;;2.15;;
15482;SDS011;7843;50.330;7.312;2023-05-20T11:45:44;3.35;;;1.98;;
15482;SDS011;7843;50.330;7.312;2023-05-20T11:48:32;4.40;;;2.47;;
15482;SDS011;7843;50.330;7.312;2023-05-20T11:50:58;2.55;;;1.85;;
15482;SDS011;7843;50.330;7.312;2023-05-20T11:53:27;4.93;;;2.50;;
15482;SDS011;7843;50.330;7.312;2023-05-20T11:55:59;4.65;;;2.30;;
15482;SDS011;7843;50.330;7.312;2023-05-20T11:58:30;4.05;;;2.50;;
15482;SDS011;7843;50.330;7.312;2023-05-20T12:00:57;2.60;;;2.05;;
15482;SDS011;7843;50.330;7.312;2023-05-20T12:03:27;3.28;;;2.22;;
15482;SDS011;7843;50.330;7.312;2023-05-20T12:05:54;3.83;;;2.40;;
15482;SDS011;7843;50.330;7.312;2023-05-20T12:08:21;4.83;;;2.33;;
15482;SDS011;7843;50.330;7.312;2023-05-20T12:10:47;3.40;;;2.40;;
15482;SDS011;7843;50.330;7.312;2023-05-20T12:13:14;6.03;;;2.58;;
15482;SDS011;7843;50.330;7.312;2023-05-20T12:15:41;2.90;;;2.20;;
15482;SDS011;7843;50.330;7.312;2023-05-20T12:18:08;3.78;;;2.50;;
15482;SDS011;7843;50.330;7.312;2023-05-20T12:20:35;4.32;;;3.17;;
15482;SDS011;7843;50.330;7.312;2023-05-20T12:23:02;3.65;;;2.65;;
15482;SDS011;7843;50.330;7.312;2023-05-20T12:25:29;4.27;;;2.53;;
15482;SDS011;7843;50.330;7.312;2023-05-20T12:27:57;4.10;;;2.15;;
15482;SDS011;7843;50.330;7.312;2023-05-20T12:30:24;4.18;;;2.38;;
15482;SDS011;7843;50.330;7.312;2023-05-20T12:32:51;3.20;;;2.55;;
15482;SDS011;7843;50.330;7.312;2023-05-20T12:35:51;3.25;;;2.22;;
15482;SDS011;7843;50.330;7.312;2023-05-20T12:38:11;3.17;;;2.25;;
15482;SDS011;7843;50.330;7.312;2023-05-20T12:40:38;4.32;;;2.58;;
15482;SDS011;7843;50.330;7.312;2023-05-20T12:43:05;3.35;;;2.45;;
15482;SDS011;7843;50.330;7.312;2023-05-20T12:45:32;3.30;;;1.90;;
15482;SDS011;7843;50.330;7.312;2023-05-20T12:47:59;3.85;;;2.45;;
15482;SDS011;7843;50.330;7.312;2023-05-20T12:50:26;3.03;;;2.27;;
15482;SDS011;7843;50.330;7.312;2023-05-20T12:52:53;4.43;;;2.53;;
15482;SDS011;7843;50.330;7.312;2023-05-20T12:55:20;6.88;;;2.60;;
15482;SDS011;7843;50.330;7.312;2023-05-20T12:57:46;3.47;;;2.30;;
15482;SDS011;7843;50.330;7.312;2023-05-20T13:00:13;3.67;;;2.20;;
15482;SDS011;7843;50.330;7.312;2023-05-20T13:02:41;3.55;;;2.40;;
15482;SDS011;7843;50.330;7.312;2023-05-20T13:05:08;2.90;;;2.25;;
15482;SDS011;7843;50.330;7.312;2023-05-20T13:07:35;3.80;;;2.28;;
15482;SDS011;7843;50.330;7.312;2023-05-20T13:10:02;3.20;;;2.20;;
15482;SDS011;7843;50.330;7.312;2023-05-20T13:12:30;3.47;;;2.42;;
15482;SDS011;7843;50.330;7.312;2023-05-20T13:14:57;3.33;;;2.20;;
15482;SDS011;7843;50.330;7.312;2023-05-20T13:17:23;2.90;;;1.90;;
15482;SDS011;7843;50.330;7.312;2023-05-20T13:19:50;3.05;;;2.20;;
15482;SDS011;7843;50.330;7.312;2023-05-20T13:22:17;4.00;;;2.10;;
15482;SDS011;7843;50.330;7.312;2023-05-20T13:24:44;3.20;;;2.17;;
15482;SDS011;7843;50.330;7.312;2023-05-20T13:27:11;2.72;;;1.73;;
15482;SDS011;7843;50.330;7.312;2023-05-20T13:29:38;2.83;;;2.20;;
15482;SDS011;7843;50.330;7.312;2023-05-20T13:32:05;3.38;;;2.17;;
15482;SDS011;7843;50.330;7.312;2023-05-20T13:34:32;2.30;;;1.92;;
15482;SDS011;7843;50.330;7.312;2023-05-20T13:36:58;2.10;;;1.70;;
15482;SDS011;7843;50.330;7.312;2023-05-20T13:39:25;2.77;;;1.70;;
15482;SDS011;7843;50.330;7.312;2023-05-20T13:41:52;5.63;;;2.17;;
15482;SDS011;7843;50.330;7.312;2023-05-20T13:44:20;2.80;;;1.80;;
15482;SDS011;7843;50.330;7.312;2023-05-20T13:46:46;2.25;;;1.88;;
15482;SDS011;7843;50.330;7.312;2023-05-20T13:49:13;2.50;;;1.92;;
15482;SDS011;7843;50.330;7.312;2023-05-20T13:51:40;3.47;;;2.15;;
15482;SDS011;7843;50.330;7.312;2023-05-20T13:54:07;2.38;;;2.08;;
15482;SDS011;7843;50.330;7.312;2023-05-20T13:56:34;3.17;;;2.33;;
15482;SDS011;7843;50.330;7.312;2023-05-20T13:59:01;6.72;;;2.38;;
15482;SDS011;7843;50.330;7.312;2023-05-20T14:01:29;2.78;;;2.40;;
15482;SDS011;7843;50.330;7.312;2023-05-20T14:03:58;3.10;;;2.20;;
15482;SDS011;7843;50.330;7.312;2023-05-20T14:06:25;2.60;;;2.10;;
15482;SDS011;7843;50.330;7.312;2023-05-20T14:08:55;3.42;;;2.20;;
15482;SDS011;7843;50.330;7.312;2023-05-20T14:11:22;3.20;;;2.30;;
15482;SDS011;7843;50.330;7.312;2023-05-20T14:13:48;3.45;;;2.45;;
15482;SDS011;7843;50.330;7.312;2023-05-20T14:16:15;3.75;;;2.47;;
15482;SDS011;7843;50.330;7.312;2023-05-20T14:18:42;3.00;;;2.17;;
15482;SDS011;7843;50.330;7.312;2023-05-20T14:21:10;2.90;;;2.25;;
15482;SDS011;7843;50.330;7.312;2023-05-20T14:23:37;3.58;;;2.50;;
15482;SDS011;7843;50.330;7.312;2023-05-20T14:26:06;4.95;;;2.60;;
15482;SDS011;7843;50.330;7.312;2023-05-20T14:28:32;4.03;;;2.37;;
15482;SDS011;7843;50.330;7.312;2023-05-20T14:30:59;6.55;;;3.17;;
15482;SDS011;7843;50.330;7.312;2023-05-20T14:33:26;3.55;;;2.40;;
15482;SDS011;7843;50.330;7.312;2023-05-20T14:35:53;3.00;;;2.33;;
15482;SDS011;7843;50.330;7.312;2023-05-20T14:38:20;3.20;;;2.10;;
15482;SDS011;7843;50.330;7.312;2023-05-20T14:40:47;3.20;;;2.40;;
15482;SDS011;7843;50.330;7.312;2023-05-20T14:43:14;4.32;;;2.70;;
15482;SDS011;7843;50.330;7.312;2023-05-20T14:45:41;3.78;;;2.53;;
15482;SDS011;7843;50.330;7.312;2023-05-20T14:48:09;3.70;;;2.40;;
15482;SDS011;7843;50.330;7.312;2023-05-20T14:50:36;2.97;;;2.20;;
15482;SDS011;7843;50.330;7.312;2023-05-20T14:53:03;3.92;;;2.65;;
15482;SDS011;7843;50.330;7.312;2023-05-20T14:55:30;3.42;;;2.20;;
15482;SDS011;7843;50.330;7.312;2023-05-20T14:57:57;3.40;;;2.40;;
15482;SDS011;7843;50.330;7.312;2023-05-20T15:00:24;2.90;;;2.13;;
15482;SDS011;7843;50.330;7.312;2023-05-20T15:02:51;3.65;;;2.50;;
15482;SDS011;7843;50.330;7.312;2023-05-20T15:05:18;3.67;;;2.58;;
15482;SDS011;7843;50.330;7.312;2023-05-20T15:07:44;4.15;;;2.60;;
15482;SDS011;7843;50.330;7.312;2023-05-20T15:10:12;5.10;;;2.92;;
15482;SDS011;7843;50.330;7.312;2023-05-20T15:12:38;3.97;;;2.78;;
15482;SDS011;7843;50.330;7.312;2023-05-20T15:15:05;2.85;;;2.40;;
15482;SDS011;7843;50.330;7.312;2023-05-20T15:17:33;4.63;;;2.83;;